Terminal Aerodrome Forecast
Issued by NWS

Home | Current Version | Previous Version | Text Only | Print | Product List | Glossary On
Versions: 1 2 3 4 5 6 7 8 9 10 11 12 13 14 15 16 17 18 19 20 21 22 23 24 25 26 27 28 29 30
000
FTUS43 KDLH 230500 RRA
TAFHYR
TAF
KHYR 230542Z 2306/2406 18011KT P6SM VCSH BKN050
     FM230900 17007KT 6SM -RA BR BKN010 OVC050
     FM231500 20004KT 4SM -RA BR BKN010
     FM231800 22005KT P6SM SCT010 BKN030
     FM232200 24005KT P6SM SCT010 BKN040=

USA.gov is the U.S. government's official web portal to all federal, state and local government web resources and services.